Time;durP1;ratioP1;P1;durP2;ratioP2;P2;SDS_P1;SDS_P2;PMS_P1;PMS_P2;Temp;Humidity;BMP_temperature;BMP_pressure;BME280_temperature;BME280_humidity;BME280_pressure;Samples;Min_cycle;Max_cycle;Signal;HPM_P1;HPM_P2
2022/08/27 00:01:55;;;;;;;11.53;10.67;;;19.70;99.90;;;;;;5028488;28;20634;-95
2022/08/27 00:04:23;;;;;;;13.33;12.23;;;19.70;99.90;;;;;;5033345;28;20650;-96
2022/08/27 00:06:50;;;;;;;12.30;11.40;;;19.70;99.90;;;;;;5039013;28;21102;-95
2022/08/27 00:09:17;;;;;;;11.03;10.17;;;19.80;99.90;;;;;;5031706;28;20688;-94
2022/08/27 00:11:45;;;;;;;12.07;11.00;;;19.80;99.90;;;;;;5033048;28;20630;-95
2022/08/27 00:14:12;;;;;;;13.90;12.60;;;19.90;99.90;;;;;;5031409;28;21297;-95
2022/08/27 00:16:41;;;;;;;11.67;10.67;;;19.90;99.90;;;;;;5033033;28;20662;-94
2022/08/27 00:19:08;;;;;;;13.03;12.03;;;19.90;99.90;;;;;;5035544;28;20663;-94
2022/08/27 00:21:35;;;;;;;13.93;12.63;;;19.90;99.90;;;;;;5032642;28;20624;-93
2022/08/27 00:24:03;;;;;;;15.97;14.37;;;19.80;99.90;;;;;;5034901;28;20730;-93
2022/08/27 00:26:30;;;;;;;13.70;12.50;;;19.70;99.90;;;;;;5033246;28;20692;-94
2022/08/27 00:28:57;;;;;;;16.00;14.80;;;19.60;99.90;;;;;;5036194;28;20637;-94
2022/08/27 00:31:24;;;;;;;13.53;12.30;;;19.70;99.90;;;;;;5015819;28;21099;-95
2022/08/27 00:33:53;;;;;;;12.73;11.63;;;19.70;99.90;;;;;;5031656;28;20654;-94
2022/08/27 00:36:20;;;;;;;12.03;11.13;;;19.70;99.90;;;;;;5027418;28;20721;-94
2022/08/27 00:38:48;;;;;;;15.60;14.20;;;19.70;99.90;;;;;;5035088;28;21181;-93
2022/08/27 00:41:15;;;;;;;15.37;13.33;;;19.60;99.90;;;;;;5033568;28;20741;-94
2022/08/27 00:43:48;;;;;;;8.67;7.97;;;19.70;99.90;;;;;;5022087;28;20651;-95
2022/08/27 00:46:24;;;;;;;13.57;12.47;;;19.80;99.90;;;;;;5029890;28;20615;-94
2022/08/27 00:48:56;;;;;;;13.23;12.27;;;19.80;99.90;;;;;;5040327;28;20617;-94
2022/08/27 00:51:24;;;;;;;14.13;13.03;;;19.80;99.90;;;;;;5032897;28;21153;-94
2022/08/27 00:53:53;;;;;;;15.60;14.30;;;19.80;99.90;;;;;;5031548;28;20647;-93
2022/08/27 00:56:23;;;;;;;14.20;13.10;;;19.80;99.90;;;;;;5026404;28;20954;-94
2022/08/27 00:58:53;;;;;;;16.13;14.73;;;19.80;99.90;;;;;;5035778;28;20642;-94
2022/08/27 01:01:24;;;;;;;15.03;13.70;;;19.80;99.90;;;;;;5032255;28;20626;-95
2022/08/27 01:03:59;;;;;;;15.47;14.07;;;19.80;99.90;;;;;;5030289;28;20658;-94
2022/08/27 01:06:37;;;;;;;15.27;14.00;;;19.70;99.90;;;;;;5032362;28;20641;-94
2022/08/27 01:09:09;;;;;;;12.60;11.50;;;19.70;99.90;;;;;;5029422;28;20632;-95
2022/08/27 01:11:37;;;;;;;9.57;8.77;;;19.70;99.90;;;;;;5035088;28;20631;-95
2022/08/27 01:14:05;;;;;;;13.17;11.93;;;19.70;99.90;;;;;;5029693;28;20652;-94
2022/08/27 01:16:38;;;;;;;7.20;6.60;;;19.80;99.90;;;;;;5035871;28;20993;-94
2022/08/27 01:19:14;;;;;;;12.40;11.40;;;19.90;99.90;;;;;;5053250;28;21103;-95
2022/08/27 01:21:49;;;;;;;9.30;8.37;;;20.10;99.90;;;;;;5017490;28;20721;-95
2022/08/27 01:24:39;;;;;;;11.33;10.33;;;20.40;99.90;;;;;;5028459;28;20658;-95
2022/08/27 01:27:10;;;;;;;14.33;13.13;;;20.30;99.90;;;;;;5029288;28;20718;-96
2022/08/27 01:29:38;;;;;;;14.10;12.87;;;20.40;99.90;;;;;;5032814;28;20666;-95
2022/08/27 01:32:11;;;;;;;14.67;13.47;;;20.30;99.90;;;;;;5033912;28;21404;-95
2022/08/27 01:34:39;;;;;;;17.83;16.03;;;20.30;99.90;;;;;;5033183;28;20666;-95
2022/08/27 01:37:06;;;;;;;10.30;9.40;;;20.20;99.90;;;;;;5030571;28;21163;-94
2022/08/27 01:39:33;;;;;;;6.40;6.00;;;20.10;99.90;;;;;;5031805;28;20709;-94
2022/08/27 01:42:05;;;;;;;6.67;5.67;;;20.20;99.90;;;;;;5032272;28;21183;-95
2022/08/27 01:44:44;;;;;;;6.77;6.27;;;20.60;99.90;;;;;;5030727;28;20697;-96
2022/08/27 01:47:11;;;;;;;7.73;7.17;;;20.90;99.90;;;;;;5027637;28;20639;-95
2022/08/27 01:49:38;;;;;;;13.70;12.60;;;21.10;99.90;;;;;;5031582;28;20722;-95
2022/08/27 01:52:05;;;;;;;16.33;14.93;;;21.10;99.90;;;;;;5024178;28;21045;-95
2022/08/27 01:54:32;;;;;;;14.80;13.60;;;20.80;99.90;;;;;;5028891;28;20641;-94
2022/08/27 01:56:59;;;;;;;15.90;14.70;;;20.60;99.90;;;;;;5027970;28;20639;-94
2022/08/27 01:59:28;;;;;;;15.10;13.90;;;20.30;99.90;;;;;;5029602;28;20659;-94
2022/08/27 02:01:56;;;;;;;12.83;11.83;;;20.10;99.90;;;;;;5029394;28;20615;-94
2022/08/27 02:04:23;;;;;;;11.97;11.13;;;20.00;99.90;;;;;;5032847;28;20653;-95
2022/08/27 02:06:50;;;;;;;11.80;10.37;;;20.00;99.90;;;;;;5029450;28;20661;-95
2022/08/27 02:09:17;;;;;;;15.90;14.60;;;20.00;99.90;;;;;;5032634;28;20707;-94
2022/08/27 02:11:44;;;;;;;9.33;7.87;;;19.80;99.90;;;;;;5030903;28;20674;-96
2022/08/27 02:14:11;;;;;;;13.07;12.03;;;19.70;99.90;;;;;;5030794;28;20750;-95
2022/08/27 02:16:40;;;;;;;15.20;13.90;;;19.80;99.90;;;;;;5031027;28;20722;-95
2022/08/27 02:19:07;;;;;;;14.50;13.30;;;19.80;99.90;;;;;;5035926;28;20688;-95
2022/08/27 02:21:34;;;;;;;15.53;14.33;;;19.60;99.90;;;;;;5034347;28;20658;-96
2022/08/27 02:24:01;;;;;;;16.10;14.70;;;19.60;99.90;;;;;;5038356;28;20662;-95
2022/08/27 02:26:29;;;;;;;15.93;14.63;;;19.60;99.90;;;;;;5036589;28;20631;-95
2022/08/27 02:28:55;;;;;;;15.00;13.70;;;19.60;99.90;;;;;;5038781;28;20639;-96
2022/08/27 02:31:23;;;;;;;16.93;15.47;;;19.70;99.90;;;;;;5036771;28;20618;-96
2022/08/27 02:33:51;;;;;;;18.37;13.67;;;19.70;99.90;;;;;;5028422;28;21239;-95
2022/08/27 02:36:18;;;;;;;15.07;13.57;;;19.70;99.90;;;;;;5030793;28;20764;-94
2022/08/27 02:38:46;;;;;;;16.37;14.77;;;19.70;99.90;;;;;;5031545;28;20707;-94
2022/08/27 02:41:15;;;;;;;14.77;13.47;;;19.60;99.90;;;;;;5033066;28;20762;-96
2022/08/27 02:43:42;;;;;;;15.47;14.20;;;19.60;99.90;;;;;;5032559;28;21210;-96
2022/08/27 02:46:10;;;;;;;14.03;12.67;;;19.60;99.90;;;;;;5029803;28;20648;-95
2022/08/27 02:48:38;;;;;;;16.30;15.00;;;19.60;99.90;;;;;;5031257;28;20669;-95
2022/08/27 02:51:08;;;;;;;15.93;14.57;;;19.60;99.90;;;;;;5030468;28;20622;-93
2022/08/27 02:53:37;;;;;;;16.43;15.00;;;19.60;99.90;;;;;;5027999;28;20643;-95
2022/08/27 02:56:05;;;;;;;15.00;12.03;;;19.60;99.90;;;;;;5030696;28;20631;-95
2022/08/27 02:58:34;;;;;;;13.23;11.90;;;19.60;99.90;;;;;;5030812;28;20657;-95
2022/08/27 03:01:01;;;;;;;15.50;14.23;;;19.70;99.90;;;;;;5034107;28;21096;-95
2022/08/27 03:03:28;;;;;;;15.13;13.93;;;19.70;99.90;;;;;;5029770;28;21020;-95
2022/08/27 03:05:56;;;;;;;14.77;13.57;;;19.70;99.90;;;;;;5029757;28;20681;-94
2022/08/27 03:08:26;;;;;;;14.80;13.60;;;19.50;99.90;;;;;;5029511;28;20685;-95
2022/08/27 03:10:53;;;;;;;14.77;13.57;;;19.60;99.90;;;;;;5034320;28;20627;-95
2022/08/27 03:13:21;;;;;;;15.50;13.93;;;19.60;99.90;;;;;;5034310;28;20689;-95
2022/08/27 03:15:48;;;;;;;14.47;12.87;;;19.70;99.90;;;;;;5035185;28;20738;-96
2022/08/27 03:18:17;;;;;;;18.57;16.80;;;19.70;99.90;;;;;;5032206;28;20650;-95
2022/08/27 03:20:55;;;;;;;16.30;14.80;;;19.70;99.90;;;;;;5036215;28;20654;-95
2022/08/27 03:23:26;;;;;;;7.40;6.80;;;19.70;99.90;;;;;;5048783;28;20647;-95
2022/08/27 03:25:56;;;;;;;7.57;7.07;;;19.90;99.90;;;;;;5057986;28;20615;-96
2022/08/27 03:28:26;;;;;;;7.07;6.57;;;20.10;99.90;;;;;;5053178;28;20627;-96
2022/08/27 03:30:57;;;;;;;9.67;8.77;;;20.30;99.90;;;;;;5038188;28;20722;-94
2022/08/27 03:33:25;;;;;;;6.70;6.10;;;20.50;99.90;;;;;;5042260;28;20662;-96
2022/08/27 03:35:53;;;;;;;14.20;11.50;;;20.50;99.90;;;;;;5035920;28;20651;-95
2022/08/27 03:38:20;;;;;;;16.83;15.40;;;20.50;99.90;;;;;;5049671;28;20637;-94
2022/08/27 03:40:53;;;;;;;8.03;7.47;;;20.50;99.90;;;;;;5040795;28;21005;-96
2022/08/27 03:43:31;;;;;;;15.27;13.87;;;20.70;99.90;;;;;;5040026;28;20729;-96
2022/08/27 03:46:00;;;;;;;17.57;16.13;;;20.60;99.90;;;;;;5049561;28;20662;-96
2022/08/27 03:48:46;;;;;;;17.63;16.03;;;20.50;99.90;;;;;;5044747;28;20649;-96
2022/08/27 03:51:15;;;;;;;19.67;17.83;;;20.40;99.90;;;;;;5045678;28;20633;-96
2022/08/27 03:53:45;;;;;;;16.10;14.70;;;20.30;99.90;;;;;;5041998;28;20690;-96
2022/08/27 03:56:21;;;;;;;14.37;12.97;;;20.20;99.90;;;;;;5045020;28;20725;-96
2022/08/27 03:58:52;;;;;;;10.43;9.63;;;20.20;99.90;;;;;;5038317;28;20652;-96
2022/08/27 04:01:19;;;;;;;16.80;15.50;;;20.30;99.90;;;;;;5042919;28;20758;-96
2022/08/27 04:03:47;;;;;;;19.10;17.40;;;20.50;99.90;;;;;;5043658;28;20694;-96
2022/08/27 04:06:16;;;;;;;21.20;19.67;;;20.50;99.90;;;;;;5042628;28;20646;-96
2022/08/27 04:08:43;;;;;;;17.50;14.27;;;20.60;99.90;;;;;;5036547;28;20717;-96
2022/08/27 04:11:14;;;;;;;17.33;15.67;;;20.50;99.90;;;;;;5035438;28;20635;-94
2022/08/27 04:13:41;;;;;;;8.87;8.07;;;20.70;99.90;;;;;;5037694;28;20754;-96
2022/08/27 04:16:07;;;;;;;18.10;16.40;;;20.70;99.90;;;;;;5037022;28;20646;-95
2022/08/27 04:18:35;;;;;;;16.47;14.87;;;20.70;99.90;;;;;;5036946;28;20645;-95
2022/08/27 04:21:08;;;;;;;18.90;17.33;;;20.60;99.90;;;;;;5033264;28;21243;-94
2022/08/27 04:23:35;;;;;;;14.30;13.30;;;20.40;99.90;;;;;;5042299;28;20684;-96
2022/08/27 04:26:06;;;;;;;22.57;20.77;;;20.40;99.90;;;;;;5038958;28;21189;-95
2022/08/27 04:28:35;;;;;;;20.80;19.10;;;20.40;99.90;;;;;;5045186;28;20623;-95
2022/08/27 04:31:04;;;;;;;20.33;18.70;;;20.20;99.90;;;;;;5046754;28;21116;-95
2022/08/27 04:33:34;;;;;;;19.63;18.13;;;20.40;99.90;;;;;;5047945;28;20646;-96
2022/08/27 04:39:11;;;;;;;16.13;14.80;;;20.40;99.90;;;;;;5054104;28;20634;-96
2022/08/27 04:42:16;;;;;;;18.37;16.80;;;20.30;99.90;;;;;;5042436;28;20701;-96
2022/08/27 04:48:38;;;;;;;25.43;23.30;;;20.50;99.90;;;;;;5056000;28;20567;-96
2022/08/27 04:58:54;;;;;;;14.77;13.47;;;20.80;99.90;;;;;;5049037;28;20740;-96
2022/08/27 05:01:24;;;;;;;18.30;16.83;;;20.90;99.90;;;;;;5047013;28;20753;-95
2022/08/27 05:03:53;;;;;;;29.17;26.70;;;20.90;99.90;;;;;;5041629;28;20642;-96
2022/08/27 05:06:20;;;;;;;31.97;29.20;;;20.80;99.90;;;;;;5044349;28;20654;-96
2022/08/27 05:08:55;;;;;;;32.60;29.60;;;20.70;99.90;;;;;;5042026;28;20719;-96
2022/08/27 05:11:25;;;;;;;32.40;29.47;;;20.40;99.90;;;;;;5040494;28;20611;-96
2022/08/27 05:13:52;;;;;;;33.00;30.00;;;20.20;99.90;;;;;;5043879;28;20626;-96
2022/08/27 05:16:22;;;;;;;33.53;30.70;;;20.30;99.90;;;;;;5044852;28;20629;-96
2022/08/27 05:18:50;;;;;;;19.93;18.33;;;20.10;99.90;;;;;;5041001;28;20783;-96
2022/08/27 05:24:06;;;;;;;22.93;20.87;;;20.10;99.90;;;;;;5045785;28;20627;-95
2022/08/27 05:26:42;;;;;;;32.90;30.00;;;20.00;99.90;;;;;;5050123;28;20623;-96
2022/08/27 05:29:11;;;;;;;33.60;31.00;;;20.10;99.90;;;;;;5046805;28;20720;-95
2022/08/27 05:34:21;;;;;;;28.57;25.80;;;19.90;99.90;;;;;;5098481;22;20675;-96
2022/08/27 05:36:50;;;;;;;34.27;31.23;;;20.00;99.90;;;;;;5048043;28;21207;-95
2022/08/27 05:39:18;;;;;;;19.40;17.80;;;20.00;99.90;;;;;;5032989;28;20749;-95
2022/08/27 05:41:45;;;;;;;36.67;33.57;;;20.20;99.90;;;;;;5031731;28;20658;-94
2022/08/27 05:44:12;;;;;;;25.27;23.07;;;20.40;99.90;;;;;;5005562;28;20655;-95
2022/08/27 05:46:40;;;;;;;17.57;16.20;;;20.40;99.90;;;;;;5031636;28;20638;-95
2022/08/27 05:49:11;;;;;;;37.17;33.33;;;20.40;99.90;;;;;;5033411;28;20631;-95
2022/08/27 05:51:39;;;;;;;35.93;32.83;;;20.50;99.90;;;;;;5032905;28;20645;-96
2022/08/27 05:54:18;;;;;;;34.80;31.73;;;20.50;99.90;;;;;;5031632;28;20670;-96
2022/08/27 05:56:45;;;;;;;18.97;17.37;;;20.50;99.90;;;;;;5031009;28;20661;-95
2022/08/27 06:02:09;;;;;;;35.63;32.77;;;20.40;99.90;;;;;;5030402;28;21252;-96
2022/08/27 06:04:37;;;;;;;35.70;32.70;;;20.20;99.90;;;;;;5032521;28;20667;-95
2022/08/27 06:07:05;;;;;;;34.03;30.83;;;20.20;99.90;;;;;;5031730;28;20631;-94
2022/08/27 06:09:38;;;;;;;35.37;32.43;;;20.20;99.90;;;;;;5033841;28;20626;-96
2022/08/27 06:12:07;;;;;;;36.93;33.60;;;20.20;99.90;;;;;;5035850;28;20630;-95
2022/08/27 06:14:36;;;;;;;36.30;33.40;;;20.20;99.90;;;;;;5032277;28;21001;-94
2022/08/27 06:17:05;;;;;;;38.90;35.47;;;20.10;99.90;;;;;;5033892;28;20737;-96
2022/08/27 06:19:35;;;;;;;21.63;19.93;;;20.10;99.90;;;;;;5034612;28;20665;-94
2022/08/27 06:22:02;;;;;;;35.47;32.13;;;20.20;99.90;;;;;;5031294;28;20654;-94
2022/08/27 06:24:30;;;;;;;26.90;24.67;;;20.40;99.90;;;;;;5035288;28;20666;-94
2022/08/27 06:27:00;;;;;;;36.13;33.13;;;20.50;99.90;;;;;;5037074;28;20635;-94
2022/08/27 06:29:28;;;;;;;22.70;20.50;;;20.60;99.90;;;;;;5031150;28;20639;-95
2022/08/27 06:31:55;;;;;;;29.03;26.70;;;20.50;99.90;;;;;;5031340;28;20634;-96
2022/08/27 06:34:22;;;;;;;35.33;32.40;;;20.60;99.90;;;;;;5037623;28;20708;-96
2022/08/27 06:36:49;;;;;;;28.10;25.50;;;20.60;99.90;;;;;;5042458;28;20740;-96
2022/08/27 06:39:16;;;;;;;25.00;23.10;;;20.60;99.90;;;;;;5035664;28;20997;-95
2022/08/27 06:41:44;;;;;;;36.33;33.07;;;20.50;99.90;;;;;;5036265;28;20646;-95
2022/08/27 06:44:14;;;;;;;36.50;32.93;;;20.50;99.90;;;;;;5036838;28;20662;-96
2022/08/27 06:46:42;;;;;;;38.87;35.57;;;20.40;99.90;;;;;;5041757;28;20662;-96
2022/08/27 06:49:10;;;;;;;33.80;30.60;;;20.40;99.90;;;;;;5044184;28;21204;-96
2022/08/27 06:51:40;;;;;;;23.20;21.17;;;20.30;99.90;;;;;;5045365;28;20633;-96
2022/08/27 06:54:34;;;;;;;20.83;19.13;;;20.60;99.90;;;;;;5042148;28;20654;-96
2022/08/27 06:57:02;;;;;;;19.87;17.87;;;20.80;99.90;;;;;;5028942;28;20665;-96
2022/08/27 06:59:32;;;;;;;19.97;18.37;;;21.10;99.90;;;;;;5046757;28;20672;-96
2022/08/27 07:02:01;;;;;;;29.77;26.90;;;21.40;99.90;;;;;;5049571;28;20737;-96
2022/08/27 07:04:28;;;;;;;20.03;17.00;;;21.50;99.90;;;;;;5040498;28;21316;-96
2022/08/27 07:06:55;;;;;;;25.03;22.50;;;21.80;99.90;;;;;;5040215;28;21264;-95
2022/08/27 07:09:24;;;;;;;17.10;15.37;;;21.80;99.90;;;;;;5048815;28;20626;-96
2022/08/27 07:11:53;;;;;;;17.37;15.60;;;21.80;99.90;;;;;;5044877;28;20643;-96
2022/08/27 07:14:49;;;;;;;17.97;16.23;;;22.00;99.90;;;;;;5059591;28;20634;-96
2022/08/27 07:17:17;;;;;;;20.37;15.60;;;22.10;99.90;;;;;;5067204;28;20622;-95
2022/08/27 07:19:45;;;;;;;24.70;19.80;;;22.20;99.90;;;;;;5064823;28;20657;-96
2022/08/27 07:22:12;;;;;;;20.07;17.37;;;22.20;99.90;;;;;;5059254;28;20655;-95
2022/08/27 07:24:40;;;;;;;17.93;15.93;;;22.00;99.90;;;;;;5057561;28;20673;-95
2022/08/27 07:27:07;;;;;;;16.97;15.23;;;22.10;99.90;;;;;;5053620;28;20694;-96
2022/08/27 07:29:34;;;;;;;17.73;16.27;;;22.20;99.90;;;;;;5048043;28;20618;-96
2022/08/27 07:32:05;;;;;;;23.20;20.97;;;22.30;99.90;;;;;;5037631;28;20698;-95
2022/08/27 07:34:32;;;;;;;19.83;17.87;;;22.20;99.90;;;;;;5036148;28;20740;-96
2022/08/27 07:37:01;;;;;;;26.23;23.50;;;22.00;99.90;;;;;;5040116;28;21252;-93
2022/08/27 07:39:28;;;;;;;25.77;23.13;;;21.60;99.90;;;;;;5041814;28;21298;-92
2022/08/27 07:45:04;;;;;;;32.87;30.00;;;21.20;99.90;;;;;;5042148;28;20759;-91
2022/08/27 07:47:36;;;;;;;33.20;30.30;;;21.00;99.90;;;;;;5036524;28;20641;-96
2022/08/27 07:50:07;;;;;;;26.80;24.07;;;20.90;99.90;;;;;;5045390;28;21054;-96
2022/08/27 07:52:40;;;;;;;32.73;26.80;;;21.00;99.90;;;;;;5059442;28;20734;-95
2022/08/27 07:55:08;;;;;;;37.10;33.97;;;20.90;99.90;;;;;;5049731;28;20641;-94
2022/08/27 07:57:35;;;;;;;35.20;32.53;;;20.50;99.90;;;;;;5042106;28;20622;-95
2022/08/27 08:10:01;;;;;;;37.37;34.00;;;20.20;99.90;;;;;;5036586;28;20603;-96
2022/08/27 08:12:28;;;;;;;37.40;34.07;;;20.30;99.90;;;;;;5032551;28;20647;-96
2022/08/27 08:17:56;;;;;;;37.93;34.70;;;20.70;99.90;;;;;;5130207;22;20690;-95
2022/08/27 08:20:26;;;;;;;35.77;32.37;;;20.90;99.90;;;;;;5056457;28;20675;-95
2022/08/27 08:28:23;;;;;;;36.87;33.47;;;21.00;99.90;;;;;;5809128;22;20695;-95
2022/08/27 08:31:03;;;;;;;40.17;36.17;;;21.00;99.90;;;;;;5064138;28;20682;-95
2022/08/27 08:33:38;;;;;;;36.93;33.53;;;20.90;99.90;;;;;;5062206;28;20653;-94
2022/08/27 08:36:10;;;;;;;33.67;30.67;;;20.90;99.90;;;;;;5049936;28;21053;-96
2022/08/27 08:38:38;;;;;;;36.60;33.30;;;21.00;99.90;;;;;;5050588;28;20691;-95
2022/08/27 08:41:15;;;;;;;37.83;34.53;;;20.90;99.90;;;;;;5052039;28;20634;-94
2022/08/27 08:43:48;;;;;;;36.77;33.50;;;20.80;99.90;;;;;;5049173;28;20661;-95
2022/08/27 08:46:21;;;;;;;33.10;30.37;;;20.90;99.90;;;;;;5055942;28;20720;-95
2022/08/27 08:48:51;;;;;;;34.37;31.33;;;20.80;99.90;;;;;;5057160;28;20680;-95
2022/08/27 08:51:25;;;;;;;32.60;29.80;;;20.90;99.90;;;;;;5025295;28;20623;-96
2022/08/27 08:53:59;;;;;;;31.60;28.90;;;21.00;99.90;;;;;;5049433;28;20649;-96
2022/08/27 08:56:40;;;;;;;25.77;23.47;;;20.80;99.90;;;;;;5051383;28;20625;-93
2022/08/27 08:59:13;;;;;;;24.67;22.67;;;20.80;99.90;;;;;;5047416;28;20637;-93
2022/08/27 09:01:40;;;;;;;22.13;20.43;;;20.90;99.90;;;;;;5049563;28;20650;-94
2022/08/27 09:04:11;;;;;;;23.60;21.80;;;21.00;99.90;;;;;;5045672;28;20734;-93
2022/08/27 09:06:43;;;;;;;22.53;20.73;;;20.80;99.90;;;;;;5034847;28;21336;-93
2022/08/27 09:09:20;;;;;;;21.00;19.43;;;20.90;99.90;;;;;;5038465;28;21185;-95
2022/08/27 09:11:56;;;;;;;17.33;16.13;;;20.80;99.90;;;;;;5051982;28;20622;-92
2022/08/27 09:14:33;;;;;;;17.20;15.80;;;20.80;99.90;;;;;;5043679;28;20668;-93
2022/08/27 09:17:01;;;;;;;15.90;14.73;;;20.70;99.90;;;;;;5032068;28;20740;-94
2022/08/27 09:19:29;;;;;;;12.70;11.80;;;20.90;99.90;;;;;;5047998;28;20638;-92
2022/08/27 09:22:03;;;;;;;10.30;9.40;;;21.00;99.90;;;;;;5047311;28;20676;-93
2022/08/27 09:24:40;;;;;;;12.83;11.70;;;21.00;99.90;;;;;;5049536;28;20663;-95
2022/08/27 09:27:11;;;;;;;11.13;10.23;;;20.90;99.90;;;;;;5051161;28;20717;-94
2022/08/27 09:29:46;;;;;;;13.40;12.30;;;20.70;99.90;;;;;;5039020;28;20681;-91
2022/08/27 09:32:13;;;;;;;14.23;12.83;;;20.70;99.90;;;;;;5042998;28;20654;-91
2022/08/27 09:34:42;;;;;;;10.50;9.60;;;20.80;99.90;;;;;;5018227;28;20749;-91
2022/08/27 09:37:15;;;;;;;12.17;11.27;;;20.90;99.90;;;;;;5047539;28;20625;-91
2022/08/27 09:39:50;;;;;;;11.20;10.40;;;21.00;99.90;;;;;;5029839;28;20632;-91
2022/08/27 09:42:29;;;;;;;16.90;15.60;;;21.20;99.90;;;;;;5048509;28;20668;-93
2022/08/27 09:44:57;;;;;;;16.50;15.40;;;21.10;99.90;;;;;;5045442;28;20719;-93
2022/08/27 09:47:25;;;;;;;15.53;14.37;;;21.00;99.90;;;;;;5044914;28;20720;-94
2022/08/27 09:50:07;;;;;;;14.83;13.80;;;20.90;99.90;;;;;;5044236;28;20649;-95
2022/08/27 09:52:39;;;;;;;13.60;12.60;;;20.90;99.90;;;;;;5031563;28;20653;-95
2022/08/27 09:55:07;;;;;;;16.50;15.40;;;20.80;99.90;;;;;;5048957;28;20638;-94
2022/08/27 09:57:38;;;;;;;15.20;14.10;;;20.70;99.90;;;;;;5049162;28;20626;-94
2022/08/27 10:00:13;;;;;;;16.00;14.90;;;20.60;99.90;;;;;;5045101;28;20650;-94
2022/08/27 10:02:49;;;;;;;15.93;14.63;;;20.50;99.90;;;;;;5050585;28;20664;-94
2022/08/27 10:05:26;;;;;;;16.57;15.37;;;20.40;99.90;;;;;;5049188;28;20662;-94
2022/08/27 10:07:59;;;;;;;17.60;16.17;;;20.50;99.90;;;;;;5048709;28;20637;-93
2022/08/27 10:10:40;;;;;;;16.10;14.83;;;20.40;99.90;;;;;;5048401;28;21203;-93
2022/08/27 10:13:14;;;;;;;18.00;16.80;;;20.40;99.90;;;;;;5044516;28;20635;-93
2022/08/27 10:15:50;;;;;;;18.37;17.03;;;20.40;99.90;;;;;;5046560;28;21258;-93
2022/08/27 10:18:24;;;;;;;16.30;15.30;;;20.30;99.90;;;;;;5044602;28;20626;-92
2022/08/27 10:21:03;;;;;;;18.43;17.20;;;20.30;99.90;;;;;;5048484;28;20586;-93
2022/08/27 10:23:37;;;;;;;19.93;18.43;;;20.30;99.90;;;;;;5034465;28;20693;-92
2022/08/27 10:26:12;;;;;;;19.03;17.63;;;20.30;99.90;;;;;;5051307;28;20614;-92
2022/08/27 10:28:56;;;;;;;19.10;17.90;;;20.40;99.90;;;;;;5046611;28;20648;-93
2022/08/27 10:31:30;;;;;;;19.17;17.80;;;20.50;99.90;;;;;;5037132;28;20630;-92
2022/08/27 10:34:11;;;;;;;20.77;19.23;;;20.50;99.90;;;;;;5049745;28;21228;-92
2022/08/27 10:36:47;;;;;;;19.47;17.90;;;20.60;99.90;;;;;;5049938;28;20664;-93
2022/08/27 10:39:31;;;;;;;17.77;16.57;;;20.70;99.90;;;;;;5051571;28;20661;-92
2022/08/27 10:42:07;;;;;;;15.37;14.27;;;20.70;99.90;;;;;;5055959;28;20660;-92
2022/08/27 10:44:51;;;;;;;13.10;12.20;;;20.70;99.90;;;;;;5048043;28;21204;-92
2022/08/27 10:47:35;;;;;;;12.17;11.27;;;20.70;99.90;;;;;;5049055;28;20629;-93
2022/08/27 10:50:07;;;;;;;13.30;12.40;;;20.80;99.90;;;;;;5051226;28;20640;-92
2022/08/27 10:52:39;;;;;;;11.43;10.53;;;20.70;99.90;;;;;;5035796;28;20622;-93
2022/08/27 10:55:14;;;;;;;10.57;9.10;;;20.70;99.90;;;;;;5045145;28;20643;-92
2022/08/27 10:58:02;;;;;;;14.13;13.00;;;20.70;99.90;;;;;;5045126;28;20635;-93
2022/08/27 11:00:39;;;;;;;13.47;12.47;;;20.70;99.90;;;;;;5045168;28;20630;-93
2022/08/27 11:03:10;;;;;;;12.40;11.40;;;20.80;99.90;;;;;;5047362;28;20718;-92
2022/08/27 11:05:43;;;;;;;12.70;11.40;;;20.90;99.90;;;;;;5048623;28;20630;-93
2022/08/27 11:08:16;;;;;;;11.37;10.30;;;20.90;99.90;;;;;;5048963;28;20684;-92
2022/08/27 11:10:48;;;;;;;11.40;10.50;;;21.00;99.90;;;;;;5049084;28;20687;-93
2022/08/27 11:13:23;;;;;;;11.03;10.00;;;21.00;99.90;;;;;;5027955;28;21050;-93
2022/08/27 11:15:54;;;;;;;11.47;10.40;;;21.10;99.90;;;;;;5031562;28;20630;-93
2022/08/27 11:18:28;;;;;;;11.70;10.60;;;21.10;99.90;;;;;;5032637;28;20633;-92
2022/08/27 11:21:01;;;;;;;12.43;11.17;;;21.20;99.90;;;;;;5045663;28;20737;-93
2022/08/27 11:23:36;;;;;;;11.87;10.83;;;21.20;99.90;;;;;;5047090;28;20673;-92
2022/08/27 11:26:06;;;;;;;12.73;11.63;;;21.20;99.90;;;;;;5050179;28;20625;-94
2022/08/27 11:28:38;;;;;;;14.77;13.37;;;21.20;99.90;;;;;;5035455;28;20661;-92
2022/08/27 11:31:16;;;;;;;16.60;15.00;;;21.10;99.90;;;;;;5049620;28;20695;-93
2022/08/27 11:33:47;;;;;;;15.97;14.57;;;21.00;99.90;;;;;;5046075;28;20700;-93
2022/08/27 11:36:46;;;;;;;17.93;16.30;;;20.90;99.90;;;;;;5026159;28;20640;-93
2022/08/27 11:39:29;;;;;;;17.07;15.37;;;20.70;99.90;;;;;;5051853;28;20621;-92
2022/08/27 11:42:06;;;;;;;17.87;16.27;;;20.60;99.90;;;;;;5049700;28;20935;-93
2022/08/27 11:44:39;;;;;;;18.23;16.43;;;20.50;99.90;;;;;;5050829;28;20681;-93
2022/08/27 11:47:14;;;;;;;17.97;16.47;;;20.50;99.90;;;;;;5054813;28;20788;-93
2022/08/27 11:49:45;;;;;;;16.73;15.00;;;20.40;99.90;;;;;;5046917;28;20614;-92
2022/08/27 11:52:19;;;;;;;17.87;16.17;;;20.50;99.90;;;;;;5046173;28;20659;-92
2022/08/27 11:54:49;;;;;;;18.63;16.93;;;20.40;99.90;;;;;;5048945;28;20658;-92
2022/08/27 11:57:28;;;;;;;17.90;16.40;;;20.40;99.90;;;;;;5046699;28;20625;-92
2022/08/27 11:59:55;;;;;;;19.63;17.80;;;20.50;99.90;;;;;;5051843;28;20618;-92
2022/08/27 12:02:25;;;;;;;19.17;17.47;;;20.40;99.90;;;;;;5033588;28;20682;-92
2022/08/27 12:04:56;;;;;;;19.37;17.57;;;20.40;99.90;;;;;;5033193;28;20673;-92
2022/08/27 12:07:30;;;;;;;18.90;16.90;;;20.50;99.90;;;;;;5051215;28;20657;-92
2022/08/27 12:10:18;;;;;;;20.80;18.87;;;20.50;99.90;;;;;;5059938;28;20683;-92
2022/08/27 12:12:56;;;;;;;22.67;20.50;;;20.40;99.90;;;;;;5060999;28;20633;-92
2022/08/27 12:15:28;;;;;;;28.63;26.40;;;20.40;99.90;;;;;;5051686;28;20738;-93
2022/08/27 12:18:08;;;;;;;22.60;20.90;;;20.40;99.90;;;;;;5051966;28;20633;-92
2022/08/27 12:20:45;;;;;;;23.03;21.03;;;20.30;99.90;;;;;;5051168;28;20760;-93
2022/08/27 12:26:19;;;;;;;24.40;22.20;;;20.50;99.90;;;;;;5056206;28;20601;-93
2022/08/27 12:28:47;;;;;;;24.03;22.30;;;20.70;99.90;;;;;;5045831;28;20644;-93
2022/08/27 12:31:19;;;;;;;23.03;21.33;;;20.70;99.90;;;;;;5025137;28;20629;-92
2022/08/27 12:33:48;;;;;;;22.73;20.93;;;20.90;99.90;;;;;;5050037;28;20650;-93
2022/08/27 12:36:19;;;;;;;21.70;20.00;;;21.00;99.90;;;;;;5050107;28;20642;-92
2022/08/27 12:38:49;;;;;;;20.43;18.83;;;21.30;99.90;;;;;;5056719;28;20653;-93
2022/08/27 12:41:25;;;;;;;23.80;22.03;;;21.50;99.90;;;;;;5058605;28;20641;-94
2022/08/27 12:44:03;;;;;;;19.40;17.50;;;21.50;99.90;;;;;;5052743;28;21026;-93
2022/08/27 12:46:30;;;;;;;18.17;16.40;;;21.70;99.90;;;;;;5064748;28;20644;-92
2022/08/27 12:49:00;;;;;;;17.77;16.20;;;21.80;99.90;;;;;;5056743;28;20645;-95
2022/08/27 12:51:31;;;;;;;15.73;14.33;;;21.60;99.90;;;;;;5052055;28;20668;-94
2022/08/27 12:54:05;;;;;;;15.47;14.03;;;21.70;99.90;;;;;;5056462;28;21402;-94
2022/08/27 12:56:50;;;;;;;17.00;14.63;;;21.70;99.90;;;;;;5050444;28;20629;-94
2022/08/27 12:59:38;;;;;;;14.10;12.80;;;22.00;99.90;;;;;;5050838;28;20646;-95
2022/08/27 13:02:17;;;;;;;14.47;13.10;;;22.10;99.90;;;;;;5043869;28;20646;-95
2022/08/27 13:04:46;;;;;;;13.83;12.67;;;22.20;99.90;;;;;;5054836;28;20644;-95
2022/08/27 13:07:13;;;;;;;13.63;12.40;;;22.30;99.90;;;;;;5049647;28;20964;-95
2022/08/27 13:09:40;;;;;;;17.30;15.90;;;22.40;99.90;;;;;;5050309;28;20618;-95
2022/08/27 13:12:16;;;;;;;8.30;6.77;;;22.40;99.90;;;;;;5050259;28;20630;-95
2022/08/27 13:14:44;;;;;;;6.60;6.10;;;22.00;99.90;;;;;;5048134;28;20719;-94
2022/08/27 13:17:16;;;;;;;4.77;4.23;;;21.60;99.90;;;;;;5037636;28;21082;-95
2022/08/27 13:19:51;;;;;;;4.40;4.00;;;21.50;99.90;;;;;;5051223;28;20699;-95
2022/08/27 13:22:23;;;;;;;5.53;5.13;;;21.40;99.90;;;;;;5052406;28;20707;-94
2022/08/27 13:24:53;;;;;;;4.80;4.50;;;21.40;99.90;;;;;;5051619;28;20638;-96
2022/08/27 13:27:25;;;;;;;5.27;4.77;;;21.60;99.90;;;;;;5051990;28;20630;-95
2022/08/27 13:29:55;;;;;;;6.97;6.37;;;21.40;99.90;;;;;;5051809;28;20648;-96
2022/08/27 13:32:32;;;;;;;6.37;5.77;;;21.20;99.90;;;;;;5035843;28;20664;-96
2022/08/27 13:35:00;;;;;;;5.03;4.30;;;21.10;99.90;;;;;;5038897;28;20653;-96
2022/08/27 13:37:34;;;;;;;4.80;4.50;;;21.00;99.90;;;;;;5041940;28;20655;-95